createdAt,value
2019-02-15T00:00:41.512Z,11.77
2019-02-15T00:03:45.004Z,11.73
2019-02-15T00:06:48.524Z,11.60
2019-02-15T00:09:51.972Z,10.27
2019-02-15T00:12:55.272Z,11.00
2019-02-15T00:15:58.723Z,10.97
2019-02-15T00:19:10.778Z,11.63
2019-02-15T00:22:14.176Z,10.67
2019-02-15T00:25:17.478Z,10.93
2019-02-15T00:28:20.976Z,11.23
2019-02-15T00:31:24.517Z,11.83
2019-02-15T00:34:28.084Z,11.27
2019-02-15T00:37:31.476Z,11.83
2019-02-15T00:40:34.880Z,11.33
2019-02-15T00:43:38.184Z,11.83
2019-02-15T00:47:19.131Z,10.80
2019-02-15T00:50:57.038Z,11.03
2019-02-15T00:54:05.289Z,10.30
2019-02-15T00:57:33.525Z,9.90
2019-02-15T01:00:43.626Z,12.23
2019-02-15T01:03:55.745Z,10.80
2019-02-15T01:07:09.713Z,12.00
2019-02-15T01:10:33.968Z,13.57
2019-02-15T01:13:37.513Z,11.30
2019-02-15T01:16:40.905Z,11.17
2019-02-15T01:19:44.464Z,10.73
2019-02-15T01:22:48.016Z,11.67
2019-02-15T01:26:13.456Z,11.40
2019-02-15T01:29:39.074Z,11.33
2019-02-15T01:33:04.901Z,12.40
2019-02-15T01:36:30.804Z,11.97
2019-02-15T01:39:48.138Z,11.63
2019-02-15T01:43:10.973Z,11.80
2019-02-15T01:46:20.803Z,10.90
2019-02-15T01:49:24.301Z,10.47
2019-02-15T01:52:27.874Z,10.63
2019-02-15T01:55:31.340Z,10.47
2019-02-15T01:58:34.846Z,11.13
2019-02-15T02:01:38.236Z,10.60
2019-02-15T02:04:41.644Z,11.20
2019-02-15T02:07:45.180Z,10.20
2019-02-15T02:10:48.649Z,11.87
2019-02-15T02:13:52.044Z,10.43
2019-02-15T02:16:55.446Z,11.37
2019-02-15T02:19:58.848Z,12.63
2019-02-15T02:23:02.284Z,11.80
2019-02-15T02:26:05.652Z,10.33
2019-02-15T02:29:08.945Z,10.13
2019-02-15T02:32:12.544Z,9.77
2019-02-15T02:35:15.949Z,10.27
2019-02-15T02:38:19.248Z,10.50
2019-02-15T02:41:22.544Z,10.57
2019-02-15T02:44:26.059Z,10.47
2019-02-15T02:47:29.489Z,10.57
2019-02-15T02:50:32.945Z,9.80
2019-02-15T02:53:36.343Z,10.40
2019-02-15T02:56:39.773Z,10.37
2019-02-15T02:59:43.044Z,10.03
2019-02-15T03:02:46.584Z,10.10
2019-02-15T03:05:49.949Z,9.93
2019-02-15T03:08:53.348Z,9.53
2019-02-15T03:11:56.748Z,10.17
2019-02-15T03:15:00.422Z,10.37
2019-02-15T03:18:03.892Z,9.87
2019-02-15T03:21:07.258Z,10.57
2019-02-15T03:24:10.649Z,10.40
2019-02-15T03:27:14.052Z,10.17
2019-02-15T03:30:17.357Z,9.90
2019-02-15T03:33:20.753Z,10.10
2019-02-15T03:36:43.485Z,9.67
2019-02-15T03:39:49.705Z,9.97
2019-02-15T03:42:53.169Z,10.13
2019-02-15T03:45:56.804Z,10.47
2019-02-15T03:49:00.313Z,10.80
2019-02-15T03:52:03.682Z,11.13
2019-02-15T03:55:07.320Z,11.23
2019-02-15T03:58:10.789Z,10.73
2019-02-15T04:01:14.392Z,9.53
2019-02-15T04:04:17.729Z,8.70
2019-02-15T04:07:21.200Z,9.10
2019-02-15T04:10:24.632Z,10.47
2019-02-15T04:13:28.085Z,10.87
2019-02-15T04:16:31.492Z,10.33
2019-02-15T04:19:35.033Z,10.97
2019-02-15T04:22:38.387Z,10.47
2019-02-15T04:25:41.833Z,9.90
2019-02-15T04:28:45.336Z,10.33
2019-02-15T04:31:48.800Z,10.07
2019-02-15T04:34:52.440Z,10.73
2019-02-15T04:37:55.898Z,10.83
2019-02-15T04:40:59.245Z,11.20
2019-02-15T04:44:02.743Z,10.67
2019-02-15T04:47:07.229Z,9.77
2019-02-15T04:50:10.774Z,10.07
2019-02-15T04:53:14.127Z,10.23
2019-02-15T04:56:17.431Z,10.07
2019-02-15T04:59:20.767Z,10.90
2019-02-15T05:02:24.225Z,10.70
2019-02-15T05:05:27.569Z,10.70
2019-02-15T05:08:31.032Z,10.50
2019-02-15T05:11:34.355Z,11.90
2019-02-15T05:14:37.868Z,11.30
2019-02-15T05:17:41.232Z,11.83
2019-02-15T05:20:44.768Z,10.27
2019-02-15T05:23:48.128Z,11.23
2019-02-15T05:26:51.538Z,10.93
2019-02-15T05:29:54.968Z,12.33
2019-02-15T05:32:58.350Z,9.77
2019-02-15T05:36:01.640Z,10.80
2019-02-15T05:39:07.597Z,11.93
2019-02-15T05:42:10.987Z,11.03
2019-02-15T05:45:14.328Z,9.43
2019-02-15T05:48:17.892Z,11.33
2019-02-15T05:51:21.289Z,11.03
2019-02-15T05:54:24.732Z,9.73
2019-02-15T05:57:28.197Z,9.60
2019-02-15T06:00:37.096Z,9.47
2019-02-15T06:03:36.737Z,10.13
2019-02-15T06:06:40.032Z,10.07
2019-02-15T06:09:43.455Z,9.97
2019-02-15T06:12:47.066Z,11.37
2019-02-15T06:15:50.549Z,12.03
2019-02-15T06:18:53.938Z,11.83
2019-02-15T06:21:57.338Z,13.50
2019-02-15T06:25:00.776Z,13.20
2019-02-15T06:28:04.244Z,13.27
2019-02-15T06:31:07.642Z,12.20
2019-02-15T06:34:11.032Z,11.63
2019-02-15T06:37:14.455Z,11.53
2019-02-15T06:40:17.876Z,11.93
2019-02-15T06:43:21.238Z,12.60
2019-02-15T06:46:24.637Z,12.47
2019-02-15T06:49:28.049Z,12.20
2019-02-15T06:52:31.440Z,13.17
2019-02-15T06:55:34.840Z,12.87
2019-02-15T06:58:45.826Z,11.77
2019-02-15T07:01:54.337Z,12.23
2019-02-15T07:05:16.980Z,12.10
2019-02-15T07:08:20.284Z,13.93
2019-02-15T07:11:23.788Z,14.63
2019-02-15T07:14:27.184Z,17.83
2019-02-15T07:17:30.486Z,15.30
2019-02-15T07:20:33.884Z,13.30
2019-02-15T07:23:37.332Z,12.17
2019-02-15T07:26:40.724Z,10.60
2019-02-15T07:29:44.080Z,10.87
2019-02-15T07:32:47.633Z,10.67
2019-02-15T07:35:51.127Z,9.97
2019-02-15T07:38:54.588Z,12.93
2019-02-15T07:41:58.740Z,13.60
2019-02-15T07:45:02.210Z,13.63
2019-02-15T07:48:05.652Z,13.97
2019-02-15T07:51:09.863Z,13.73
2019-02-15T07:54:13.351Z,13.90
2019-02-15T07:57:16.889Z,19.83
2019-02-15T08:00:20.244Z,17.33
2019-02-15T08:03:23.794Z,18.30
2019-02-15T08:06:27.304Z,20.43
2019-02-15T08:09:30.761Z,22.33
2019-02-15T08:12:34.193Z,23.97
2019-02-15T08:15:37.681Z,24.67
2019-02-15T08:18:40.956Z,21.93
2019-02-15T08:21:44.405Z,19.20
2019-02-15T08:24:47.752Z,16.83
2019-02-15T08:27:51.094Z,16.50
2019-02-15T08:30:54.495Z,15.03
2019-02-15T08:33:57.854Z,15.30
2019-02-15T08:37:01.300Z,15.63
2019-02-15T08:40:05.268Z,16.27
2019-02-15T08:43:08.672Z,16.27
2019-02-15T08:46:12.208Z,17.27
2019-02-15T08:49:15.572Z,16.23
2019-02-15T08:52:19.020Z,16.67
2019-02-15T08:55:22.474Z,16.37
2019-02-15T08:58:25.981Z,16.40
2019-02-15T09:01:29.421Z,16.37
2019-02-15T09:04:32.821Z,16.97
2019-02-15T09:07:36.373Z,15.70
2019-02-15T09:10:39.680Z,16.73
2019-02-15T09:13:42.973Z,14.63
2019-02-15T09:16:46.516Z,14.30
2019-02-15T09:19:49.872Z,14.00
2019-02-15T09:22:53.420Z,14.20
2019-02-15T09:25:57.028Z,14.00
2019-02-15T09:29:03.156Z,13.80
2019-02-15T09:32:06.609Z,13.33
2019-02-15T09:35:09.847Z,13.37
2019-02-15T09:38:13.188Z,12.63
2019-02-15T09:41:16.544Z,12.10
2019-02-15T09:44:19.936Z,12.07
2019-02-15T09:47:23.385Z,12.30
2019-02-15T09:50:26.744Z,11.73
2019-02-15T09:53:30.140Z,12.13
2019-02-15T09:56:33.644Z,12.47
2019-02-15T09:59:38.069Z,11.80
2019-02-15T10:02:41.564Z,10.80
2019-02-15T10:05:44.972Z,12.00
2019-02-15T10:08:48.268Z,10.30
2019-02-15T10:11:51.668Z,11.48
2019-02-15T10:14:55.104Z,11.37
2019-02-15T10:17:58.574Z,12.53
2019-02-15T10:21:01.868Z,11.05
2019-02-15T10:24:05.164Z,11.03
2019-02-15T10:27:08.564Z,10.50
2019-02-15T10:30:12.005Z,11.03
2019-02-15T10:33:15.877Z,10.65
2019-02-15T10:36:19.181Z,10.40
2019-02-15T10:39:22.572Z,10.75
2019-02-15T10:42:25.972Z,10.80
2019-02-15T10:45:29.499Z,10.90
2019-02-15T10:48:32.780Z,10.93
2019-02-15T10:51:36.081Z,10.23
2019-02-15T10:54:39.470Z,10.75
2019-02-15T10:57:42.872Z,10.40
2019-02-15T11:00:46.265Z,10.55
2019-02-15T11:03:49.672Z,9.80
2019-02-15T11:06:53.112Z,10.25
2019-02-15T11:09:56.468Z,9.95
2019-02-15T11:12:59.808Z,9.10
2019-02-15T11:16:03.312Z,8.53
2019-02-15T11:19:06.669Z,8.93
2019-02-15T11:22:10.094Z,9.30
2019-02-15T11:25:13.470Z,8.48
2019-02-15T11:28:17.124Z,8.30
2019-02-15T11:31:20.679Z,8.15
2019-02-15T11:34:25.251Z,6.92
2019-02-15T11:37:28.748Z,6.95
2019-02-15T11:40:32.208Z,6.55
2019-02-15T11:43:35.513Z,7.15
2019-02-15T11:46:38.852Z,7.00
2019-02-15T11:49:42.305Z,6.72
2019-02-15T11:52:45.754Z,7.55
2019-02-15T11:55:49.152Z,7.10
2019-02-15T11:58:52.505Z,7.10
2019-02-15T12:01:56.034Z,7.10
2019-02-15T12:04:59.616Z,6.85
2019-02-15T12:08:03.981Z,7.62
2019-02-15T12:11:07.373Z,6.30
2019-02-15T12:14:10.837Z,6.83
2019-02-15T12:17:14.384Z,7.35
2019-02-15T12:20:17.841Z,7.58
2019-02-15T12:23:21.296Z,7.70
2019-02-15T12:26:24.650Z,7.15
2019-02-15T12:29:28.089Z,6.90
2019-02-15T12:32:31.544Z,6.50
2019-02-15T12:35:34.996Z,4.83
2019-02-15T12:38:38.343Z,5.75
2019-02-15T12:41:41.884Z,5.87
2019-02-15T12:44:45.255Z,6.12
2019-02-15T12:47:48.580Z,6.28
2019-02-15T12:50:51.944Z,6.50
2019-02-15T12:53:55.344Z,6.10
2019-02-15T12:56:58.680Z,5.37
2019-02-15T13:00:02.240Z,4.25
2019-02-15T13:03:05.710Z,5.47
2019-02-15T13:06:09.048Z,5.40
2019-02-15T13:09:12.549Z,4.92
2019-02-15T13:12:16.088Z,5.15
2019-02-15T13:15:19.655Z,5.15
2019-02-15T13:18:23.197Z,5.03
2019-02-15T13:21:26.561Z,5.30
2019-02-15T13:24:29.965Z,5.65
2019-02-15T13:27:33.296Z,6.72
2019-02-15T13:30:36.984Z,5.17
2019-02-15T13:33:40.464Z,6.37
2019-02-15T13:36:43.877Z,6.35
2019-02-15T13:39:47.474Z,6.70
2019-02-15T13:42:50.811Z,5.80
2019-02-15T13:45:54.270Z,6.17
2019-02-15T13:48:58.696Z,5.72
2019-02-15T13:52:01.995Z,6.45
2019-02-15T13:55:05.596Z,7.33
2019-02-15T13:58:09.041Z,7.22
2019-02-15T14:01:12.599Z,5.95
2019-02-15T14:04:16.000Z,5.25
2019-02-15T14:07:19.708Z,5.95
2019-02-15T14:10:23.117Z,6.28
2019-02-15T14:13:26.508Z,6.58
2019-02-15T14:16:29.873Z,6.15
2019-02-15T14:19:33.412Z,5.70
2019-02-15T14:22:36.708Z,6.03
2019-02-15T14:25:40.109Z,6.17
2019-02-15T14:28:43.512Z,6.12
2019-02-15T14:31:46.800Z,6.03
2019-02-15T14:34:50.209Z,6.22
2019-02-15T14:37:53.733Z,5.40
2019-02-15T14:40:57.105Z,6.05
2019-02-15T14:44:00.508Z,6.22
2019-02-15T14:47:03.907Z,6.03
2019-02-15T14:50:07.308Z,5.92
2019-02-15T14:53:10.709Z,5.67
2019-02-15T14:56:14.104Z,5.25
2019-02-15T14:59:17.404Z,4.90
2019-02-15T15:02:20.808Z,4.55
2019-02-15T15:05:24.344Z,4.65
2019-02-15T15:08:27.848Z,5.08
2019-02-15T15:11:31.356Z,5.15
2019-02-15T15:14:34.748Z,4.28
2019-02-15T15:17:38.316Z,4.22
2019-02-15T15:20:41.757Z,3.92
2019-02-15T15:23:45.075Z,4.10
2019-02-15T15:26:48.461Z,4.25
2019-02-15T15:29:51.871Z,4.20
2019-02-15T15:32:55.258Z,4.05
2019-02-15T15:35:58.866Z,3.85
2019-02-15T15:39:03.766Z,3.80
2019-02-15T15:42:07.361Z,4.22
2019-02-15T15:45:11.012Z,5.22
2019-02-15T15:48:22.566Z,4.90
2019-02-15T15:51:20.016Z,6.30
2019-02-15T15:54:23.456Z,5.90
2019-02-15T15:57:27.044Z,6.33
2019-02-15T16:00:38.733Z,6.30
2019-02-15T16:03:35.702Z,5.47
2019-02-15T16:06:39.164Z,5.55
2019-02-15T16:09:42.506Z,5.70
2019-02-15T16:12:45.865Z,5.40
2019-02-15T16:15:49.203Z,5.30
2019-02-15T16:18:52.562Z,4.80
2019-02-15T16:21:55.864Z,4.58
2019-02-15T16:24:59.224Z,4.37
2019-02-15T16:28:02.559Z,4.53
2019-02-15T16:31:06.060Z,5.87
2019-02-15T16:34:09.502Z,6.80
2019-02-15T16:37:12.956Z,5.53
2019-02-15T16:40:16.504Z,5.37
2019-02-15T16:43:20.984Z,6.65
2019-02-15T16:46:24.393Z,5.72
2019-02-15T16:49:27.832Z,6.75
2019-02-15T16:52:31.391Z,6.75
2019-02-15T16:55:34.957Z,7.67
2019-02-15T16:58:38.393Z,7.50
2019-02-15T17:01:41.701Z,8.65
2019-02-15T17:04:45.137Z,12.25
2019-02-15T17:07:48.492Z,9.73
2019-02-15T17:10:51.936Z,9.60
2019-02-15T17:13:55.396Z,8.88
2019-02-15T17:16:58.904Z,9.50
2019-02-15T17:20:02.336Z,8.95
2019-02-15T17:23:05.801Z,9.47
2019-02-15T17:26:09.104Z,9.85
2019-02-15T17:29:12.500Z,9.73
2019-02-15T17:32:15.905Z,9.75
2019-02-15T17:35:19.236Z,11.20
2019-02-15T17:38:22.500Z,11.63
2019-02-15T17:41:25.792Z,12.03
2019-02-15T17:44:29.194Z,9.93
2019-02-15T17:47:32.697Z,10.65
2019-02-15T17:50:36.142Z,11.40
2019-02-15T17:53:39.492Z,10.87
2019-02-15T17:56:42.896Z,11.90
2019-02-15T17:59:46.301Z,12.43
2019-02-15T18:02:49.695Z,12.90
2019-02-15T18:05:53.138Z,13.45
2019-02-15T18:08:56.521Z,14.43
2019-02-15T18:11:59.792Z,18.17
2019-02-15T18:15:03.095Z,19.30
2019-02-15T18:18:06.386Z,18.15
2019-02-15T18:21:09.685Z,18.07
2019-02-15T18:24:13.187Z,19.30
2019-02-15T18:27:16.531Z,16.70
2019-02-15T18:30:19.884Z,15.63
2019-02-15T18:33:23.188Z,16.12
2019-02-15T18:36:26.587Z,14.77
2019-02-15T18:39:30.085Z,11.93
2019-02-15T18:42:33.385Z,10.80
2019-02-15T18:45:36.716Z,10.13
2019-02-15T18:48:40.185Z,12.00
2019-02-15T18:51:43.688Z,11.67
2019-02-15T18:54:47.081Z,11.20
2019-02-15T18:57:50.483Z,12.10
2019-02-15T19:00:53.780Z,10.87
2019-02-15T19:03:57.130Z,11.60
2019-02-15T19:07:00.732Z,10.43
2019-02-15T19:10:04.732Z,11.90
2019-02-15T19:13:08.235Z,11.10
2019-02-15T19:16:11.636Z,10.87
2019-02-15T19:19:15.104Z,10.93
2019-02-15T19:22:18.545Z,10.53
2019-02-15T19:25:22.004Z,10.03
2019-02-15T19:28:25.340Z,9.37
2019-02-15T19:31:28.745Z,9.57
2019-02-15T19:34:32.105Z,8.83
2019-02-15T19:37:35.436Z,9.17
2019-02-15T19:40:38.801Z,9.17
2019-02-15T19:43:42.200Z,9.43
2019-02-15T19:46:45.743Z,8.90
2019-02-15T19:49:49.204Z,8.90
2019-02-15T19:52:52.540Z,9.00
2019-02-15T19:55:55.989Z,9.27
2019-02-15T19:58:59.387Z,9.03
2019-02-15T20:02:02.728Z,9.53
2019-02-15T20:05:06.990Z,9.17
2019-02-15T20:08:11.046Z,9.50
2019-02-15T20:11:14.668Z,9.40
2019-02-15T20:14:18.128Z,9.70
2019-02-15T20:17:21.667Z,9.00
2019-02-15T20:20:25.031Z,9.30
2019-02-15T20:23:28.328Z,10.00
2019-02-15T20:26:31.816Z,10.07
2019-02-15T20:29:35.228Z,9.87
2019-02-15T20:32:38.667Z,9.73
2019-02-15T20:35:42.136Z,11.67
2019-02-15T20:38:45.537Z,12.77
2019-02-15T20:41:48.865Z,13.43
2019-02-15T20:44:52.228Z,13.70
2019-02-15T20:47:55.807Z,13.07
2019-02-15T20:50:59.138Z,12.30
2019-02-15T20:54:02.451Z,10.53
2019-02-15T20:57:05.764Z,12.43
2019-02-15T21:00:11.484Z,12.67
2019-02-15T21:03:14.884Z,12.40
2019-02-15T21:06:18.179Z,11.60
2019-02-15T21:09:21.587Z,10.40
2019-02-15T21:12:25.044Z,11.83
2019-02-15T21:15:28.479Z,10.73
2019-02-15T21:18:31.984Z,8.10
2019-02-15T21:21:35.485Z,7.80
2019-02-15T21:24:38.988Z,7.37
2019-02-15T21:27:42.424Z,7.57
2019-02-15T21:30:47.925Z,7.17
2019-02-15T21:33:51.236Z,8.80
2019-02-15T21:36:54.568Z,9.30
2019-02-15T21:39:57.929Z,9.57
2019-02-15T21:43:01.233Z,9.87
2019-02-15T21:46:04.528Z,10.97
2019-02-15T21:49:07.929Z,9.73
2019-02-15T21:52:11.273Z,10.53
2019-02-15T21:55:14.421Z,11.13
2019-02-15T21:58:17.724Z,10.40
2019-02-15T22:01:21.139Z,11.77
2019-02-15T22:04:24.527Z,11.57
2019-02-15T22:07:27.940Z,11.43
2019-02-15T22:10:32.247Z,10.50
2019-02-15T22:13:35.647Z,10.83
2019-02-15T22:16:39.039Z,11.83
2019-02-15T22:19:42.444Z,10.87
2019-02-15T22:22:45.740Z,12.60
2019-02-15T22:25:49.132Z,13.20
2019-02-15T22:28:52.535Z,12.47
2019-02-15T22:31:55.932Z,12.90
2019-02-15T22:34:59.236Z,12.97
2019-02-15T22:38:02.536Z,13.53
2019-02-15T22:41:16.179Z,13.17
2019-02-15T22:44:19.675Z,13.60
2019-02-15T22:47:23.181Z,12.87
2019-02-15T22:50:35.295Z,14.13
2019-02-15T22:53:31.856Z,13.23
2019-02-15T22:56:35.216Z,13.90
2019-02-15T22:59:38.657Z,14.47
2019-02-15T23:02:42.156Z,13.60
2019-02-15T23:05:45.516Z,14.97
2019-02-15T23:08:49.060Z,15.83
2019-02-15T23:11:52.524Z,15.63
2019-02-15T23:14:56.064Z,15.50
2019-02-15T23:17:59.573Z,15.17
2019-02-15T23:21:04.049Z,14.80
2019-02-15T23:24:07.320Z,14.37
2019-02-15T23:27:11.777Z,16.57
2019-02-15T23:30:15.289Z,15.27
2019-02-15T23:33:18.832Z,14.77
2019-02-15T23:36:22.188Z,15.73
2019-02-15T23:39:25.624Z,14.93
2019-02-15T23:42:29.086Z,14.53
2019-02-15T23:45:32.384Z,14.20
2019-02-15T23:48:35.720Z,13.93
2019-02-15T23:51:39.080Z,15.73
2019-02-15T23:54:42.416Z,16.53
2019-02-15T23:57:45.776Z,15.47
